Time;durP1;ratioP1;P1;durP2;ratioP2;P2;SDS_P1;SDS_P2;PMS_P1;PMS_P2;Temp;Humidity;BMP_temperature;BMP_pressure;BME280_temperature;BME280_humidity;BME280_pressure;Samples;Min_cycle;Max_cycle;Signal;HPM_P1;HPM_P2
2022/08/14 00:01:17;;;;;;;2.10;1.58;;;25.60;40.00;;;;;;5071735;28;20081;-48
2022/08/14 00:03:42;;;;;;;1.63;1.48;;;25.60;40.00;;;;;;5055057;28;20053;-42
2022/08/14 00:06:09;;;;;;;1.90;1.70;;;25.60;40.00;;;;;;5051857;28;20052;-41
2022/08/14 00:08:34;;;;;;;2.63;1.48;;;25.60;40.20;;;;;;5051287;28;20029;-45
2022/08/14 00:11:00;;;;;;;3.55;1.90;;;25.60;40.30;;;;;;5052035;28;20048;-42
2022/08/14 00:13:28;;;;;;;3.35;1.60;;;25.60;40.50;;;;;;5048880;28;20036;-42
2022/08/14 00:15:55;;;;;;;1.77;1.50;;;25.60;40.40;;;;;;5051812;28;20040;-43
2022/08/14 00:18:25;;;;;;;1.65;1.45;;;25.60;40.50;;;;;;5051001;28;20021;-47
2022/08/14 00:20:51;;;;;;;2.70;1.63;;;25.60;40.40;;;;;;5051946;28;20482;-42
2022/08/14 00:23:18;;;;;;;1.55;1.45;;;25.60;40.40;;;;;;5052074;28;20037;-43
2022/08/14 00:25:46;;;;;;;1.52;1.20;;;25.60;40.30;;;;;;5051018;28;20474;-42
2022/08/14 00:28:13;;;;;;;1.80;1.30;;;25.60;40.20;;;;;;5050512;28;20481;-42
2022/08/14 00:30:39;;;;;;;2.45;1.58;;;25.50;40.20;;;;;;5049473;28;20083;-43
2022/08/14 00:33:05;;;;;;;2.08;1.42;;;25.50;40.20;;;;;;5051835;28;20056;-43
2022/08/14 00:35:32;;;;;;;1.40;1.30;;;25.50;40.20;;;;;;5050922;28;20025;-42
2022/08/14 00:37:57;;;;;;;1.33;1.10;;;25.50;40.10;;;;;;5050662;28;20040;-42
2022/08/14 00:40:23;;;;;;;2.83;1.58;;;25.50;40.20;;;;;;5050906;28;20025;-43
2022/08/14 00:42:49;;;;;;;3.03;1.40;;;25.50;40.40;;;;;;5051701;28;20390;-42
2022/08/14 00:45:16;;;;;;;2.78;1.50;;;25.50;40.30;;;;;;5041039;28;20041;-42
2022/08/14 00:47:44;;;;;;;2.60;1.10;;;25.50;40.40;;;;;;5050728;28;20032;-43
2022/08/14 00:50:13;;;;;;;4.43;1.48;;;25.40;40.30;;;;;;5051446;28;20029;-42
2022/08/14 00:52:40;;;;;;;2.65;1.95;;;25.40;40.30;;;;;;5050650;28;20029;-43
2022/08/14 00:55:07;;;;;;;2.03;1.55;;;25.40;40.40;;;;;;5051596;28;20076;-44
2022/08/14 00:57:34;;;;;;;2.05;1.10;;;25.40;40.40;;;;;;5050725;28;20029;-43
2022/08/14 01:00:01;;;;;;;4.82;1.30;;;25.40;40.50;;;;;;5064656;28;20025;-42
2022/08/14 01:02:28;;;;;;;2.88;1.40;;;25.40;40.50;;;;;;5049382;28;20037;-48
2022/08/14 01:05:06;;;;;;;3.95;1.60;;;25.40;40.50;;;;;;5050267;28;20060;-45
2022/08/14 01:07:32;;;;;;;2.70;1.80;;;25.40;40.50;;;;;;5050247;28;20482;-42
2022/08/14 01:10:03;;;;;;;1.95;1.25;;;25.40;40.60;;;;;;5050218;28;20044;-43
2022/08/14 01:12:32;;;;;;;2.53;1.15;;;25.40;40.60;;;;;;5052976;28;20025;-44
2022/08/14 01:15:00;;;;;;;1.63;1.40;;;25.30;40.60;;;;;;5055071;28;20458;-45
2022/08/14 01:22:57;;;;;;;1.58;1.02;;;25.30;40.60;;;;;;5054683;28;20051;-42
2022/08/14 01:25:23;;;;;;;1.83;1.45;;;25.30;40.70;;;;;;5054430;28;20063;-52
2022/08/14 01:27:49;;;;;;;3.60;1.77;;;25.30;40.70;;;;;;5054465;28;20028;-43
2022/08/14 01:30:15;;;;;;;1.90;1.50;;;25.30;40.70;;;;;;5054498;28;20494;-44
2022/08/14 01:32:41;;;;;;;1.95;1.40;;;25.30;40.80;;;;;;5041252;28;20140;-43
2022/08/14 01:35:07;;;;;;;1.67;1.17;;;25.30;40.70;;;;;;5034585;28;20030;-44
2022/08/14 01:37:33;;;;;;;2.28;1.40;;;25.30;40.70;;;;;;5045398;28;20029;-42
2022/08/14 01:40:00;;;;;;;3.00;1.45;;;25.30;40.90;;;;;;5053940;28;20025;-45
2022/08/14 01:42:28;;;;;;;1.83;1.35;;;25.30;40.80;;;;;;5039849;28;20033;-50
2022/08/14 01:44:56;;;;;;;1.88;1.42;;;25.20;40.90;;;;;;5034475;28;20473;-42
2022/08/14 01:47:22;;;;;;;3.25;2.15;;;25.30;40.90;;;;;;5039508;28;20167;-44
2022/08/14 01:49:50;;;;;;;6.07;2.03;;;25.20;40.90;;;;;;5053693;28;20025;-44
2022/08/14 01:52:16;;;;;;;2.20;1.33;;;25.20;41.10;;;;;;5054362;28;20112;-43
2022/08/14 01:54:42;;;;;;;2.33;1.40;;;25.20;41.10;;;;;;5051640;28;20033;-42
2022/08/14 01:57:10;;;;;;;2.72;1.40;;;25.20;41.10;;;;;;5054339;28;20021;-43
2022/08/14 01:59:39;;;;;;;2.75;1.35;;;25.20;41.10;;;;;;5067209;28;20029;-44
2022/08/14 02:02:13;;;;;;;2.63;1.30;;;25.20;41.10;;;;;;5070940;28;20468;-45
2022/08/14 02:04:40;;;;;;;1.98;1.40;;;25.20;41.10;;;;;;5050907;28;20106;-42
2022/08/14 02:07:08;;;;;;;1.77;1.40;;;25.20;41.10;;;;;;5053799;28;20047;-45
2022/08/14 02:09:37;;;;;;;2.88;1.50;;;25.20;41.30;;;;;;5051759;28;20031;-48
2022/08/14 02:12:05;;;;;;;1.63;1.50;;;25.20;41.30;;;;;;5034121;28;20383;-44
2022/08/14 02:14:31;;;;;;;2.05;1.45;;;25.20;41.20;;;;;;5033171;28;20386;-45
2022/08/14 02:16:58;;;;;;;2.25;2.03;;;25.20;41.20;;;;;;5033875;28;20091;-42
2022/08/14 02:19:26;;;;;;;2.05;1.52;;;25.20;41.30;;;;;;5033791;28;20033;-46
2022/08/14 02:21:54;;;;;;;1.85;1.40;;;25.20;41.20;;;;;;5033478;28;20027;-44
2022/08/14 02:24:22;;;;;;;2.60;1.55;;;25.10;41.30;;;;;;5033649;28;20029;-43
2022/08/14 02:26:49;;;;;;;2.28;1.55;;;25.10;41.30;;;;;;5032987;28;20025;-43
2022/08/14 02:29:21;;;;;;;2.13;1.38;;;25.10;41.40;;;;;;5051645;28;20033;-47
2022/08/14 02:31:50;;;;;;;;;;;25.10;41.40;;;;;;5053473;28;20025;-42
2022/08/14 02:34:23;;;;;;;2.60;1.67;;;25.10;41.50;;;;;;5047671;28;19909;-45
2022/08/14 02:36:50;;;;;;;1.75;1.38;;;25.10;41.40;;;;;;5032525;28;20014;-42
2022/08/14 02:39:17;;;;;;;2.28;1.38;;;25.10;41.60;;;;;;5033524;28;20021;-43
2022/08/14 02:41:43;;;;;;;2.33;1.80;;;25.10;41.50;;;;;;5033025;28;20068;-42
2022/08/14 02:44:10;;;;;;;2.00;1.55;;;25.10;41.30;;;;;;5050821;28;20048;-44
2022/08/14 02:46:43;;;;;;;2.17;1.20;;;25.10;41.30;;;;;;5050827;28;20390;-45
2022/08/14 02:49:09;;;;;;;2.55;1.48;;;25.00;41.30;;;;;;5052889;28;20466;-42
2022/08/14 02:51:36;;;;;;;2.17;1.50;;;25.00;41.30;;;;;;5051163;28;20040;-42
2022/08/14 02:54:03;;;;;;;1.30;1.20;;;25.00;41.20;;;;;;5053399;28;20041;-42
2022/08/14 02:56:28;;;;;;;1.58;1.27;;;25.00;41.30;;;;;;5052923;28;20112;-50
2022/08/14 02:58:56;;;;;;;1.88;1.50;;;25.00;41.30;;;;;;5060814;28;20445;-42
2022/08/14 03:01:23;;;;;;;2.58;1.60;;;25.00;41.40;;;;;;5064496;28;20033;-43
2022/08/14 03:03:50;;;;;;;2.45;1.80;;;25.00;41.50;;;;;;5051561;28;20045;-43
2022/08/14 03:06:19;;;;;;;4.38;1.50;;;25.00;41.60;;;;;;5043349;28;20053;-42
2022/08/14 03:08:45;;;;;;;1.60;1.50;;;25.00;41.60;;;;;;5032086;28;20088;-44
2022/08/14 03:11:12;;;;;;;1.45;1.30;;;25.00;41.70;;;;;;5032961;28;20029;-43
2022/08/14 03:13:43;;;;;;;2.13;1.75;;;25.00;41.60;;;;;;5032064;28;20035;-42
2022/08/14 03:16:15;;;;;;;2.88;1.42;;;25.00;41.70;;;;;;5032942;28;20455;-43
2022/08/14 03:18:43;;;;;;;2.60;1.73;;;25.00;41.60;;;;;;5033180;28;20186;-47
2022/08/14 03:21:12;;;;;;;1.90;1.48;;;25.00;41.50;;;;;;5052555;28;20382;-42
2022/08/14 03:23:39;;;;;;;2.83;1.40;;;24.90;41.60;;;;;;5051117;28;20116;-44
2022/08/14 03:26:10;;;;;;;2.50;1.30;;;24.90;41.60;;;;;;5052584;28;20036;-42
2022/08/14 03:28:39;;;;;;;3.27;2.20;;;24.90;41.70;;;;;;5051861;28;20025;-42
2022/08/14 03:31:06;;;;;;;1.33;1.23;;;24.90;41.60;;;;;;5052461;28;20048;-42
2022/08/14 03:33:31;;;;;;;1.42;1.33;;;24.90;41.70;;;;;;5051943;28;20101;-49
2022/08/14 03:35:58;;;;;;;2.78;1.65;;;24.90;41.70;;;;;;5049817;28;20033;-43
2022/08/14 03:38:24;;;;;;;1.42;1.23;;;24.90;41.70;;;;;;5051268;28;20032;-46
2022/08/14 03:40:49;;;;;;;1.58;1.40;;;24.90;41.70;;;;;;5051590;28;20102;-43
2022/08/14 03:43:15;;;;;;;1.75;1.38;;;24.90;41.80;;;;;;5052399;28;20021;-43
2022/08/14 03:45:43;;;;;;;2.72;1.20;;;24.90;41.70;;;;;;5050529;28;20064;-46
2022/08/14 03:48:18;;;;;;;2.53;1.55;;;24.90;41.80;;;;;;5052514;28;20106;-43
2022/08/14 03:50:46;;;;;;;2.22;1.15;;;24.80;41.80;;;;;;5051326;28;20147;-43
2022/08/14 03:53:12;;;;;;;1.98;1.50;;;24.80;41.80;;;;;;5050147;28;20120;-48
2022/08/14 03:55:39;;;;;;;2.67;1.38;;;24.80;41.90;;;;;;5049737;28;20059;-44
2022/08/14 03:58:06;;;;;;;2.08;1.35;;;24.80;41.80;;;;;;5053206;28;20032;-42
2022/08/14 04:00:32;;;;;;;2.78;1.77;;;24.80;41.90;;;;;;5071577;28;20094;-49
2022/08/14 04:02:58;;;;;;;2.15;1.52;;;24.80;41.90;;;;;;5062057;28;20028;-42
2022/08/14 04:05:23;;;;;;;1.38;1.20;;;24.80;42.00;;;;;;5051182;28;20099;-42
2022/08/14 04:07:49;;;;;;;4.35;1.92;;;24.80;42.10;;;;;;5051088;28;20029;-43
2022/08/14 04:10:16;;;;;;;2.45;1.60;;;24.80;42.20;;;;;;5040194;28;20101;-51
2022/08/14 04:12:42;;;;;;;2.95;1.27;;;24.80;42.10;;;;;;5051103;28;20102;-42
2022/08/14 04:15:08;;;;;;;2.50;1.30;;;24.80;42.10;;;;;;5051855;28;20454;-46
2022/08/14 04:17:34;;;;;;;1.95;1.25;;;24.80;42.00;;;;;;5051579;28;20362;-52
2022/08/14 04:20:05;;;;;;;1.92;1.40;;;24.80;42.10;;;;;;5051728;28;20033;-43
2022/08/14 04:22:32;;;;;;;4.28;1.65;;;24.80;42.10;;;;;;5051751;28;20486;-48
2022/08/14 04:25:00;;;;;;;5.38;1.55;;;24.80;42.10;;;;;;5047674;28;20059;-41
2022/08/14 04:27:26;;;;;;;1.83;1.50;;;24.80;42.10;;;;;;5051747;28;20029;-44
2022/08/14 04:29:52;;;;;;;3.00;1.65;;;24.80;42.00;;;;;;5050846;28;20072;-45
2022/08/14 04:32:22;;;;;;;2.08;1.45;;;24.80;42.00;;;;;;5051822;28;20029;-42
2022/08/14 04:34:47;;;;;;;3.17;1.70;;;24.80;42.00;;;;;;5049628;28;20059;-46
2022/08/14 04:45:39;;;;;;;2.03;1.48;;;24.70;42.10;;;;;;5051367;28;20140;-44
2022/08/14 04:48:12;;;;;;;2.65;1.88;;;24.70;42.10;;;;;;5055201;28;20032;-45
2022/08/14 04:50:46;;;;;;;2.00;1.45;;;24.70;42.20;;;;;;5054697;28;20098;-45
2022/08/14 04:53:15;;;;;;;1.77;1.45;;;24.70;42.20;;;;;;5055259;28;20039;-42
2022/08/14 04:55:49;;;;;;;2.10;1.73;;;24.80;42.30;;;;;;5053196;28;20428;-44
2022/08/14 04:58:23;;;;;;;1.75;1.50;;;24.70;42.20;;;;;;5041028;28;20033;-43
2022/08/14 05:00:50;;;;;;;1.90;1.40;;;24.80;42.30;;;;;;5053765;28;20354;-45
2022/08/14 05:03:19;;;;;;;1.85;1.58;;;24.70;42.30;;;;;;5055127;28;20025;-42
2022/08/14 05:05:53;;;;;;;3.30;1.55;;;24.70;42.30;;;;;;5054109;28;20114;-42
2022/08/14 05:08:19;;;;;;;3.45;1.50;;;24.70;42.30;;;;;;5055493;28;20029;-43
2022/08/14 05:10:50;;;;;;;2.97;1.48;;;24.80;42.50;;;;;;5052965;28;20029;-46
2022/08/14 05:13:17;;;;;;;3.92;1.65;;;24.80;42.60;;;;;;5054216;28;20480;-42
2022/08/14 05:15:45;;;;;;;2.28;1.30;;;24.70;42.50;;;;;;5054069;28;20047;-43
2022/08/14 05:18:14;;;;;;;1.80;1.60;;;24.70;42.40;;;;;;5053295;28;20055;-44
2022/08/14 05:20:45;;;;;;;2.50;1.90;;;24.70;42.40;;;;;;5054097;28;20025;-42
2022/08/14 05:23:17;;;;;;;2.03;1.60;;;24.70;42.40;;;;;;5055097;28;20044;-42
2022/08/14 05:25:43;;;;;;;2.83;1.55;;;24.80;42.40;;;;;;5053740;28;20072;-42
2022/08/14 05:28:17;;;;;;;2.05;1.65;;;24.80;42.60;;;;;;5053190;28;20102;-42
2022/08/14 05:30:45;;;;;;;4.75;1.65;;;24.70;42.70;;;;;;5054246;28;20404;-43
2022/08/14 05:33:11;;;;;;;2.13;1.52;;;24.80;42.80;;;;;;5054639;28;20056;-43
2022/08/14 05:35:37;;;;;;;2.90;2.13;;;24.80;42.90;;;;;;5052532;28;20033;-50
2022/08/14 05:38:14;;;;;;;2.58;2.28;;;24.80;43.10;;;;;;5054281;28;20044;-42
2022/08/14 05:40:40;;;;;;;2.95;1.70;;;24.80;43.20;;;;;;5053448;28;20542;-44
2022/08/14 05:43:06;;;;;;;2.03;1.70;;;24.70;43.40;;;;;;5052527;28;20100;-42
2022/08/14 05:45:34;;;;;;;14.77;2.92;;;24.60;43.80;;;;;;5053939;28;20040;-41
2022/08/14 05:48:00;;;;;;;4.43;2.10;;;24.60;44.70;;;;;;5053092;28;20021;-42
2022/08/14 05:50:26;;;;;;;3.83;1.88;;;24.50;44.20;;;;;;5053771;28;20470;-42
2022/08/14 05:52:52;;;;;;;4.10;1.90;;;24.50;44.40;;;;;;5049439;28;20037;-42
2022/08/14 05:55:19;;;;;;;2.25;2.00;;;24.50;44.50;;;;;;5053837;28;20044;-42
2022/08/14 05:58:01;;;;;;;3.50;1.88;;;24.40;44.40;;;;;;5053091;28;20163;-42
2022/08/14 06:00:28;;;;;;;;;;;24.40;44.50;;;;;;5034956;28;20375;-42
2022/08/14 06:02:57;;;;;;;10.48;2.28;;;24.40;44.80;;;;;;5042138;28;19909;-42
2022/08/14 06:05:23;;;;;;;8.82;3.20;;;24.40;45.10;;;;;;5053592;28;20056;-42
2022/08/14 06:07:48;;;;;;;16.38;2.70;;;24.40;45.20;;;;;;5050922;28;20033;-41
2022/08/14 06:10:14;;;;;;;10.32;2.80;;;24.50;45.50;;;;;;5044170;28;20037;-52
2022/08/14 06:12:40;;;;;;;11.90;2.40;;;24.40;45.60;;;;;;5038885;28;20036;-52
2022/08/14 06:15:07;;;;;;;4.90;2.42;;;24.50;45.50;;;;;;5044442;28;20045;-42
2022/08/14 06:17:55;;;;;;;4.85;2.45;;;24.50;45.40;;;;;;5050399;28;20078;-42
2022/08/14 06:20:21;;;;;;;6.05;2.08;;;24.50;45.20;;;;;;5064980;28;20048;-42
2022/08/14 06:22:48;;;;;;;3.63;2.30;;;24.60;45.20;;;;;;5064135;28;20028;-42
2022/08/14 06:25:15;;;;;;;3.25;1.63;;;24.70;45.10;;;;;;5062735;28;20053;-42
2022/08/14 06:27:44;;;;;;;7.97;2.00;;;24.80;45.30;;;;;;5066932;28;20029;-50
2022/08/14 06:30:13;;;;;;;4.10;2.10;;;24.80;45.10;;;;;;5061023;28;20043;-42
2022/08/14 06:32:39;;;;;;;5.70;2.58;;;24.90;45.00;;;;;;5048111;28;20055;-49
2022/08/14 06:35:06;;;;;;;3.67;2.10;;;24.90;45.10;;;;;;5072108;28;20044;-42
2022/08/14 06:37:53;;;;;;;3.97;1.88;;;25.00;44.80;;;;;;5067144;28;20485;-42
2022/08/14 06:40:25;;;;;;;4.22;2.00;;;25.00;44.70;;;;;;5054588;28;20044;-42
2022/08/14 06:42:52;;;;;;;3.53;2.00;;;25.10;44.50;;;;;;5071771;28;20035;-45
2022/08/14 06:45:18;;;;;;;2.95;2.15;;;25.10;44.50;;;;;;5060257;28;20053;-42
2022/08/14 06:47:46;;;;;;;2.83;1.88;;;25.10;44.40;;;;;;5045765;28;20378;-46
2022/08/14 06:50:18;;;;;;;2.42;1.88;;;25.20;44.50;;;;;;5067735;28;20374;-43
2022/08/14 06:52:44;;;;;;;4.03;2.20;;;25.20;44.50;;;;;;5050820;28;20032;-49
2022/08/14 06:55:11;;;;;;;3.08;2.00;;;25.30;44.50;;;;;;5067792;28;20032;-45
2022/08/14 06:57:44;;;;;;;3.95;2.00;;;25.30;44.60;;;;;;5061952;28;20082;-42
2022/08/14 07:00:16;;;;;;;3.65;2.20;;;25.20;45.00;;;;;;5070409;28;20108;-42
2022/08/14 07:08:13;;;;;;;3.72;2.10;;;25.00;45.70;;;;;;5051884;28;20028;-41
2022/08/14 07:10:38;;;;;;;;;;;25.00;45.80;;;;;;5070428;28;20056;-42
2022/08/14 07:13:05;;;;;;;5.30;2.53;;;25.00;45.60;;;;;;5066316;28;20653;-40
2022/08/14 07:15:33;;;;;;;3.00;2.10;;;25.00;45.50;;;;;;5056646;28;20041;-46
2022/08/14 07:17:59;;;;;;;2.80;2.10;;;25.10;45.60;;;;;;5049929;28;20098;-44
2022/08/14 07:20:27;;;;;;;2.58;1.83;;;25.10;45.40;;;;;;5056063;28;20170;-43
2022/08/14 07:22:57;;;;;;;3.97;2.20;;;25.20;44.80;;;;;;5070751;28;20028;-43
2022/08/14 07:25:24;;;;;;;3.53;1.73;;;25.10;44.50;;;;;;5038126;28;20140;-41
2022/08/14 07:27:50;;;;;;;4.60;1.80;;;25.10;44.10;;;;;;5064137;28;20024;-43
2022/08/14 07:30:16;;;;;;;5.47;1.60;;;25.20;44.00;;;;;;5053242;28;20025;-43
2022/08/14 07:32:41;;;;;;;3.47;1.52;;;25.20;43.70;;;;;;5064281;28;20024;-50
2022/08/14 07:35:07;;;;;;;1.48;1.38;;;25.20;43.50;;;;;;5070599;28;20074;-42
2022/08/14 07:37:33;;;;;;;2.35;1.48;;;25.20;43.00;;;;;;5051527;28;20482;-48
2022/08/14 07:40:00;;;;;;;2.28;1.33;;;25.30;43.30;;;;;;5050919;28;20152;-41
2022/08/14 07:42:27;;;;;;;2.92;1.20;;;25.30;42.60;;;;;;5051367;28;20060;-43
2022/08/14 07:44:52;;;;;;;2.42;1.60;;;25.30;42.00;;;;;;5043477;28;20090;-42
2022/08/14 07:47:18;;;;;;;1.52;1.25;;;25.30;41.80;;;;;;5056250;28;20044;-41
2022/08/14 07:50:10;;;;;;;1.85;1.20;;;25.40;41.50;;;;;;5050894;28;20033;-49
2022/08/14 07:52:37;;;;;;;2.08;1.50;;;25.40;41.40;;;;;;5065383;28;20137;-43
2022/08/14 07:55:03;;;;;;;1.55;1.30;;;25.50;41.80;;;;;;5056974;28;20859;-42
2022/08/14 07:57:29;;;;;;;1.23;1.13;;;25.40;41.50;;;;;;5047978;28;20127;-42
2022/08/14 07:59:55;;;;;;;2.45;1.55;;;25.50;41.40;;;;;;5063388;28;20131;-44
2022/08/14 08:02:21;;;;;;;1.60;1.40;;;25.50;41.60;;;;;;5066897;28;20044;-43
2022/08/14 08:04:55;;;;;;;4.20;1.38;;;25.50;41.30;;;;;;5058194;28;20053;-47
2022/08/14 08:07:23;;;;;;;2.08;1.15;;;25.60;41.30;;;;;;5050996;28;20073;-42
2022/08/14 08:09:53;;;;;;;2.33;1.48;;;25.50;41.20;;;;;;5050368;28;20024;-44
2022/08/14 08:12:20;;;;;;;1.73;1.38;;;25.50;41.70;;;;;;5071149;28;20039;-44
2022/08/14 08:14:49;;;;;;;3.58;1.65;;;25.60;41.80;;;;;;5059166;28;20055;-50
2022/08/14 08:17:20;;;;;;;3.17;1.80;;;25.60;42.00;;;;;;5050929;28;20075;-44
2022/08/14 08:19:47;;;;;;;1.80;1.35;;;25.60;42.00;;;;;;5047274;28;20381;-50
2022/08/14 08:22:13;;;;;;;2.58;1.58;;;25.60;41.90;;;;;;5054792;28;20036;-42
2022/08/14 08:24:39;;;;;;;3.03;1.73;;;25.60;41.90;;;;;;5070887;28;20036;-42
2022/08/14 08:27:18;;;;;;;3.20;1.40;;;25.60;41.90;;;;;;5061143;28;20043;-44
2022/08/14 08:29:44;;;;;;;2.67;1.90;;;25.60;41.80;;;;;;5074788;28;20032;-44
2022/08/14 08:32:09;;;;;;;2.30;1.42;;;25.70;41.50;;;;;;5074343;28;20436;-41
2022/08/14 08:34:44;;;;;;;2.47;1.40;;;25.70;41.60;;;;;;5074771;28;20050;-41
2022/08/14 08:37:10;;;;;;;2.25;1.38;;;25.70;41.60;;;;;;5064102;28;20115;-42
2022/08/14 08:39:44;;;;;;;3.42;1.30;;;25.70;41.30;;;;;;5061839;28;20091;-42
2022/08/14 08:42:09;;;;;;;4.50;1.98;;;25.80;41.50;;;;;;5072080;28;20708;-41
2022/08/14 08:44:35;;;;;;;3.85;1.52;;;25.80;41.70;;;;;;5061272;28;20083;-43
2022/08/14 08:47:06;;;;;;;7.65;1.55;;;25.80;41.80;;;;;;5063979;28;20041;-41
2022/08/14 08:49:42;;;;;;;6.75;2.17;;;25.80;41.20;;;;;;5072500;28;20036;-41
2022/08/14 08:52:07;;;;;;;2.72;1.60;;;25.80;41.40;;;;;;5061802;28;20108;-43
2022/08/14 08:54:33;;;;;;;3.33;1.60;;;25.90;41.10;;;;;;5054384;28;20111;-41
2022/08/14 08:56:59;;;;;;;2.97;1.48;;;25.90;41.10;;;;;;5063564;28;20468;-42
2022/08/14 08:59:30;;;;;;;4.03;1.10;;;25.90;40.40;;;;;;5066514;28;20029;-43
2022/08/14 09:01:58;;;;;;;2.90;1.50;;;25.90;40.00;;;;;;5072869;28;20032;-43
2022/08/14 09:04:26;;;;;;;3.70;2.15;;;25.90;39.90;;;;;;5058585;28;20131;-42
2022/08/14 09:06:52;;;;;;;3.33;1.70;;;25.90;40.30;;;;;;5049397;28;20459;-46
2022/08/14 09:09:18;;;;;;;2.97;2.20;;;26.00;40.30;;;;;;5050655;28;20039;-42
2022/08/14 09:11:44;;;;;;;1.85;1.42;;;26.00;40.00;;;;;;5074065;28;20059;-43
2022/08/14 09:14:10;;;;;;;1.70;1.48;;;26.10;40.20;;;;;;5060721;28;20111;-41
2022/08/14 09:16:36;;;;;;;3.42;1.63;;;26.10;40.40;;;;;;5073783;28;20501;-42
2022/08/14 09:19:02;;;;;;;3.47;1.75;;;26.10;40.20;;;;;;5070549;28;20036;-41
2022/08/14 09:21:28;;;;;;;2.22;1.70;;;26.10;40.10;;;;;;5059811;28;20428;-42
2022/08/14 09:23:54;;;;;;;2.00;1.30;;;26.10;39.70;;;;;;5065818;28;20021;-41
2022/08/14 09:26:20;;;;;;;1.88;1.35;;;26.10;39.60;;;;;;5054408;28;20044;-41
2022/08/14 09:28:45;;;;;;;6.28;1.88;;;26.10;40.00;;;;;;5073388;28;20029;-42
2022/08/14 09:31:13;;;;;;;4.93;1.60;;;26.10;39.90;;;;;;5066290;28;20032;-44
2022/08/14 09:34:00;;;;;;;2.65;1.88;;;26.20;40.00;;;;;;5060330;28;20024;-42
2022/08/14 09:37:02;;;;;;;2.22;1.38;;;26.20;39.40;;;;;;5060362;28;20040;-41
2022/08/14 09:39:37;;;;;;;2.92;1.52;;;26.30;39.50;;;;;;5069116;28;20083;-48
2022/08/14 09:42:34;;;;;;;2.58;1.63;;;26.30;39.50;;;;;;5052390;28;20045;-41
2022/08/14 09:45:41;;;;;;;3.90;1.60;;;26.30;39.50;;;;;;5072578;28;20033;-42
2022/08/14 09:48:17;;;;;;;3.13;1.58;;;26.30;39.70;;;;;;5067156;28;20039;-42
2022/08/14 09:50:52;;;;;;;2.97;1.60;;;26.30;39.60;;;;;;5059865;28;20458;-42
2022/08/14 09:53:37;;;;;;;1.83;1.60;;;26.30;39.50;;;;;;5045006;28;20132;-41
2022/08/14 09:56:03;;;;;;;3.33;1.85;;;26.30;39.60;;;;;;5059374;28;20033;-40
2022/08/14 09:58:44;;;;;;;2.90;1.58;;;26.30;39.70;;;;;;5059630;28;20553;-41
2022/08/14 10:01:18;;;;;;;2.53;1.25;;;26.30;39.80;;;;;;5057782;28;20032;-41
2022/08/14 10:03:54;;;;;;;2.10;1.70;;;26.40;39.60;;;;;;5058635;28;20041;-41
2022/08/14 10:06:24;;;;;;;2.17;1.60;;;26.40;39.30;;;;;;5051121;28;20048;-41
2022/08/14 10:09:01;;;;;;;4.60;1.95;;;26.40;39.50;;;;;;5065720;28;20120;-48
2022/08/14 10:11:36;;;;;;;2.70;1.55;;;26.40;39.60;;;;;;5052954;28;20029;-43
2022/08/14 10:14:17;;;;;;;2.70;1.70;;;26.40;39.60;;;;;;5055227;28;20584;-44
2022/08/14 10:16:44;;;;;;;1.73;1.42;;;26.40;39.50;;;;;;5063311;28;20128;-41
2022/08/14 10:19:13;;;;;;;2.13;1.63;;;26.40;39.50;;;;;;5061793;28;20877;-41
2022/08/14 10:21:42;;;;;;;2.05;1.70;;;26.50;39.60;;;;;;5066423;28;20055;-41
2022/08/14 10:24:09;;;;;;;1.77;1.38;;;26.50;39.50;;;;;;5051085;28;20107;-43
2022/08/14 10:26:36;;;;;;;2.72;1.90;;;26.50;39.20;;;;;;5054602;28;20033;-41
2022/08/14 10:29:11;;;;;;;2.15;1.60;;;26.60;39.20;;;;;;5061384;28;20028;-42
2022/08/14 10:31:37;;;;;;;2.40;1.88;;;26.60;38.90;;;;;;5055924;28;20048;-41
2022/08/14 10:34:04;;;;;;;2.70;2.13;;;26.60;39.00;;;;;;5072018;28;20028;-41
2022/08/14 10:36:42;;;;;;;2.88;1.80;;;26.60;39.10;;;;;;5072442;28;20021;-41
2022/08/14 10:39:22;;;;;;;3.50;2.25;;;26.50;39.00;;;;;;5071459;28;20021;-41
2022/08/14 10:41:58;;;;;;;1.98;1.70;;;26.60;38.80;;;;;;5052498;28;20033;-41
2022/08/14 10:44:32;;;;;;;2.17;1.98;;;26.60;38.90;;;;;;5062497;28;20033;-41
2022/08/14 10:47:06;;;;;;;1.60;1.50;;;26.50;38.50;;;;;;5061201;28;20128;-41
2022/08/14 10:49:35;;;;;;;1.90;1.67;;;26.50;38.90;;;;;;5069583;28;20048;-41
2022/08/14 10:52:04;;;;;;;2.42;1.67;;;26.50;38.20;;;;;;5070669;28;20039;-44
2022/08/14 10:54:33;;;;;;;2.80;1.83;;;26.60;38.40;;;;;;5058126;28;20044;-41
2022/08/14 10:57:23;;;;;;;2.75;1.40;;;26.60;39.00;;;;;;5052314;28;20043;-42
2022/08/14 10:59:59;;;;;;;1.65;1.48;;;26.60;38.80;;;;;;5061882;28;20025;-42
2022/08/14 11:02:28;;;;;;;2.63;1.73;;;26.50;38.70;;;;;;5053323;28;20489;-43
2022/08/14 11:05:16;;;;;;;3.90;1.75;;;26.60;38.90;;;;;;5051739;28;20048;-48
2022/08/14 11:07:54;;;;;;;3.63;1.88;;;26.60;38.40;;;;;;5045097;28;20036;-42
2022/08/14 11:10:25;;;;;;;2.30;1.95;;;26.60;38.00;;;;;;5071541;28;20089;-41
2022/08/14 11:12:55;;;;;;;3.10;1.80;;;26.60;37.80;;;;;;5067590;28;20045;-41
2022/08/14 11:15:26;;;;;;;2.50;2.00;;;26.60;38.10;;;;;;5050675;28;20394;-40
2022/08/14 11:17:53;;;;;;;2.22;1.75;;;26.70;37.80;;;;;;5049965;28;20091;-41
2022/08/14 11:20:21;;;;;;;2.88;2.22;;;26.70;38.40;;;;;;5035795;28;20052;-40
2022/08/14 11:22:51;;;;;;;2.28;2.03;;;26.60;37.70;;;;;;5032628;28;20032;-41
2022/08/14 11:25:18;;;;;;;4.00;2.10;;;26.60;37.90;;;;;;5041273;28;20043;-41
2022/08/14 11:27:45;;;;;;;2.17;1.95;;;26.70;38.30;;;;;;5052633;28;20029;-41
2022/08/14 11:30:18;;;;;;;2.28;1.73;;;26.70;38.20;;;;;;5051710;28;20071;-41
2022/08/14 11:32:47;;;;;;;2.92;1.73;;;26.70;38.30;;;;;;5037940;28;20034;-40
2022/08/14 11:35:26;;;;;;;2.13;1.92;;;26.70;38.00;;;;;;5031573;28;20026;-41
2022/08/14 11:37:59;;;;;;;2.30;2.10;;;26.80;38.30;;;;;;5052325;28;20036;-41
2022/08/14 11:40:29;;;;;;;2.35;1.90;;;26.70;37.80;;;;;;5051749;28;20068;-43
2022/08/14 11:42:56;;;;;;;1.80;1.70;;;26.70;38.00;;;;;;5052364;28;20036;-48
2022/08/14 11:45:23;;;;;;;2.05;1.73;;;26.80;37.30;;;;;;5051695;28;20037;-44
2022/08/14 11:47:51;;;;;;;3.53;1.80;;;26.80;37.40;;;;;;5045893;28;20032;-41
2022/08/14 11:50:26;;;;;;;4.05;2.40;;;26.80;37.20;;;;;;5031328;28;20022;-42
2022/08/14 11:52:55;;;;;;;3.60;1.70;;;26.80;37.00;;;;;;5045262;28;20029;-43
2022/08/14 11:55:20;;;;;;;3.00;2.22;;;26.80;36.90;;;;;;5051225;28;20118;-44
2022/08/14 11:57:46;;;;;;;2.13;1.92;;;26.80;37.10;;;;;;5052251;28;20469;-41
2022/08/14 12:00:16;;;;;;;2.67;2.30;;;26.80;37.10;;;;;;5070292;28;20059;-41
2022/08/14 12:02:58;;;;;;;4.20;2.35;;;26.90;37.30;;;;;;5063897;28;20032;-41
2022/08/14 12:05:42;;;;;;;4.15;2.25;;;26.90;37.00;;;;;;5040918;28;20549;-42
2022/08/14 12:08:11;;;;;;;2.15;1.90;;;26.90;36.50;;;;;;5049572;28;20129;-43
2022/08/14 12:10:38;;;;;;;1.65;1.55;;;27.00;36.80;;;;;;5051940;28;20112;-41
2022/08/14 12:13:14;;;;;;;3.47;1.83;;;26.90;36.40;;;;;;5051280;28;20100;-42
2022/08/14 12:15:41;;;;;;;2.92;1.58;;;27.00;36.00;;;;;;5052153;28;20127;-41
2022/08/14 12:18:07;;;;;;;3.63;2.42;;;27.00;35.70;;;;;;5050953;28;20028;-42
2022/08/14 12:20:37;;;;;;;1.95;1.75;;;27.00;35.80;;;;;;5035557;28;20030;-40
2022/08/14 12:23:05;;;;;;;5.32;1.90;;;27.00;36.30;;;;;;5050580;28;20112;-41
2022/08/14 12:25:33;;;;;;;3.33;1.80;;;26.90;37.00;;;;;;5051529;28;20551;-40
2022/08/14 12:28:04;;;;;;;2.22;1.75;;;26.90;36.90;;;;;;5049162;28;20521;-47
2022/08/14 12:30:39;;;;;;;1.90;1.80;;;26.90;37.20;;;;;;5051897;28;20116;-42
2022/08/14 12:33:20;;;;;;;2.10;1.90;;;26.90;36.90;;;;;;5051083;28;20068;-40
2022/08/14 12:35:48;;;;;;;2.17;1.55;;;27.00;36.60;;;;;;5048848;28;20116;-41
2022/08/14 12:38:15;;;;;;;2.83;1.92;;;27.00;36.20;;;;;;5049824;28;20529;-40
2022/08/14 12:40:52;;;;;;;2.10;1.90;;;26.90;37.50;;;;;;5051718;28;20067;-40
2022/08/14 12:43:20;;;;;;;2.42;1.70;;;26.80;38.00;;;;;;5049182;28;20032;-40
2022/08/14 12:45:53;;;;;;;1.90;1.70;;;26.70;38.10;;;;;;5051669;28;20037;-40
2022/08/14 12:48:20;;;;;;;2.75;1.50;;;26.60;38.20;;;;;;5049920;28;20159;-40
2022/08/14 12:50:50;;;;;;;2.15;1.80;;;26.60;38.40;;;;;;5046548;28;20041;-40
2022/08/14 12:53:17;;;;;;;2.00;1.80;;;26.60;38.60;;;;;;5030858;28;20030;-40
2022/08/14 12:55:44;;;;;;;1.90;1.63;;;26.60;38.40;;;;;;5031758;28;20052;-40
2022/08/14 12:58:10;;;;;;;2.40;1.75;;;26.60;38.60;;;;;;5034928;28;20037;-41
2022/08/14 13:00:49;;;;;;;2.75;1.83;;;26.60;38.80;;;;;;5053621;28;20105;-41
2022/08/14 13:03:26;;;;;;;2.25;1.63;;;26.60;38.50;;;;;;5050441;28;20051;-40
2022/08/14 13:05:53;;;;;;;3.15;1.90;;;26.60;38.30;;;;;;5049949;28;20033;-41
2022/08/14 13:08:20;;;;;;;3.20;1.70;;;26.60;37.50;;;;;;5046988;28;20088;-41
2022/08/14 13:10:46;;;;;;;1.98;1.73;;;26.60;37.50;;;;;;5034915;28;20112;-40
2022/08/14 13:13:14;;;;;;;1.55;1.45;;;26.60;37.60;;;;;;5034332;28;20474;-40
2022/08/14 13:15:44;;;;;;;3.75;1.92;;;26.60;37.70;;;;;;5043599;28;20112;-41
2022/08/14 13:18:12;;;;;;;1.67;1.52;;;26.60;38.30;;;;;;5053895;28;20036;-40